Time;durP1;ratioP1;P1;durP2;ratioP2;P2;SDS_P1;SDS_P2;PMS_P1;PMS_P2;Temp;Humidity;BMP_temperature;BMP_pressure;BME280_temperature;BME280_humidity;BME280_pressure;Samples;Min_cycle;Max_cycle;Signal;HPM_P1;HPM_P2
2021/09/25 00:02:38;;;;;;;2.91;2.34;;;;;;;19.86;68.80;100565.36;;;;-60
2021/09/25 00:05:38;;;;;;;2.49;2.29;;;;;;;19.85;68.85;100564.36;;;;-59
2021/09/25 00:08:39;;;;;;;2.65;2.45;;;;;;;19.86;68.80;100559.88;;;;-59
2021/09/25 00:11:38;;;;;;;2.43;2.23;;;;;;;19.86;68.80;100557.45;;;;-61
2021/09/25 00:14:38;;;;;;;3.55;2.54;;;;;;;19.85;68.85;100559.24;;;;-60
2021/09/25 00:17:39;;;;;;;2.62;2.40;;;;;;;19.85;68.79;100560.45;;;;-59
2021/09/25 00:20:38;;;;;;;2.64;2.37;;;;;;;19.84;68.81;100555.31;;;;-59
2021/09/25 00:23:38;;;;;;;2.59;2.39;;;;;;;19.84;68.83;100550.55;;;;-60
2021/09/25 00:26:38;;;;;;;2.66;2.46;;;;;;;19.83;68.82;100543.77;;;;-59
2021/09/25 00:29:38;;;;;;;2.53;2.33;;;;;;;19.83;68.80;100541.83;;;;-60
2021/09/25 00:32:38;;;;;;;2.64;2.44;;;;;;;19.83;68.80;100542.64;;;;-59
2021/09/25 00:35:38;;;;;;;3.05;2.48;;;;;;;19.83;68.80;100543.13;;;;-60
2021/09/25 00:38:39;;;;;;;2.51;2.31;;;;;;;19.81;68.83;100545.63;;;;-59
2021/09/25 00:41:39;;;;;;;2.61;2.41;;;;;;;19.82;68.82;100547.34;;;;-59
2021/09/25 00:44:38;;;;;;;2.53;2.33;;;;;;;19.81;68.83;100545.31;;;;-59
2021/09/25 00:47:38;;;;;;;2.89;2.55;;;;;;;19.81;68.86;100550.52;;;;-59
2021/09/25 00:50:38;;;;;;;2.51;2.31;;;;;;;19.81;68.81;100553.44;;;;-60
2021/09/25 00:53:38;;;;;;;2.57;2.37;;;;;;;19.81;68.80;100561.73;;;;-60
2021/09/25 00:56:38;;;;;;;2.58;2.38;;;;;;;19.80;68.86;100562.07;;;;-61
2021/09/25 00:59:38;;;;;;;2.50;2.30;;;;;;;19.78;68.93;100559.20;;;;-60
2021/09/25 01:02:39;;;;;;;2.51;2.31;;;;;;;19.79;68.87;100559.93;;;;-61
2021/09/25 01:05:41;;;;;;;2.96;2.45;;;;;;;19.79;68.83;100554.32;;;;-59
2021/09/25 01:08:38;;;;;;;2.59;2.39;;;;;;;19.77;68.86;100550.23;;;;-61
2021/09/25 01:11:39;;;;;;;2.63;2.42;;;;;;;19.78;68.84;100547.25;;;;-60
2021/09/25 01:14:39;;;;;;;3.18;2.37;;;;;;;19.78;68.81;100551.00;;;;-61
2021/09/25 01:17:38;;;;;;;2.57;2.37;;;;;;;19.77;68.88;100552.02;;;;-61
2021/09/25 01:20:38;;;;;;;2.58;2.38;;;;;;;19.77;68.84;100552.11;;;;-59
2021/09/25 01:23:39;;;;;;;2.70;2.50;;;;;;;19.77;68.88;100552.77;;;;-59
2021/09/25 01:26:38;;;;;;;2.41;2.21;;;;;;;19.76;68.83;100558.22;;;;-59
2021/09/25 01:29:38;;;;;;;2.50;2.30;;;;;;;19.76;68.86;100556.27;;;;-60
2021/09/25 01:32:38;;;;;;;2.61;2.41;;;;;;;19.75;68.84;100560.95;;;;-55
2021/09/25 01:35:38;;;;;;;2.49;2.29;;;;;;;19.76;68.86;100556.67;;;;-55
2021/09/25 01:38:38;;;;;;;2.65;2.45;;;;;;;19.76;68.82;100554.80;;;;-55
2021/09/25 01:41:38;;;;;;;2.52;2.31;;;;;;;19.76;68.86;100550.82;;;;-56
2021/09/25 01:44:39;;;;;;;2.50;2.30;;;;;;;19.75;68.87;100547.87;;;;-55
2021/09/25 01:47:39;;;;;;;2.63;2.43;;;;;;;19.75;68.84;100548.11;;;;-55
2021/09/25 01:50:38;;;;;;;2.48;2.28;;;;;;;19.75;68.84;100551.61;;;;-55
2021/09/25 01:53:38;;;;;;;2.50;2.30;;;;;;;19.74;68.84;100555.03;;;;-55
2021/09/25 01:56:39;;;;;;;2.61;2.34;;;;;;;19.74;68.87;100558.94;;;;-55
2021/09/25 01:59:39;;;;;;;2.48;2.28;;;;;;;19.74;68.84;100558.77;;;;-55
2021/09/25 02:02:38;;;;;;;2.53;2.33;;;;;;;19.73;68.87;100563.22;;;;-55
2021/09/25 02:05:39;;;;;;;2.46;2.26;;;;;;;19.73;68.87;100561.52;;;;-55
2021/09/25 02:08:39;;;;;;;2.62;2.42;;;;;;;19.72;68.90;100564.20;;;;-55
2021/09/25 02:11:38;;;;;;;2.79;2.21;;;;;;;19.72;68.90;100560.46;;;;-55
2021/09/25 02:14:38;;;;;;;3.90;2.37;;;;;;;19.72;68.89;100559.73;;;;-55
2021/09/25 02:17:38;;;;;;;2.49;2.29;;;;;;;19.72;68.91;100560.71;;;;-55
2021/09/25 02:20:38;;;;;;;2.45;2.25;;;;;;;19.71;68.93;100560.12;;;;-55
2021/09/25 02:23:38;;;;;;;2.52;2.29;;;;;;;19.71;68.88;100560.11;;;;-55
2021/09/25 02:26:38;;;;;;;2.49;2.29;;;;;;;19.72;68.88;100571.20;;;;-55
2021/09/25 02:29:39;;;;;;;2.54;2.34;;;;;;;19.71;68.86;100571.17;;;;-55
2021/09/25 02:32:38;;;;;;;2.55;2.35;;;;;;;19.70;68.88;100567.44;;;;-55
2021/09/25 02:35:40;;;;;;;2.65;2.45;;;;;;;19.71;68.87;100564.42;;;;-55
2021/09/25 02:38:38;;;;;;;2.59;2.39;;;;;;;19.69;68.93;100557.09;;;;-55
2021/09/25 02:41:38;;;;;;;2.49;2.29;;;;;;;19.69;68.89;100559.25;;;;-55
2021/09/25 02:44:38;;;;;;;2.60;2.40;;;;;;;19.69;68.87;100554.16;;;;-54
2021/09/25 02:47:38;;;;;;;2.43;2.23;;;;;;;19.70;68.87;100555.22;;;;-56
2021/09/25 02:50:38;;;;;;;2.64;2.44;;;;;;;19.69;68.88;100556.09;;;;-55
2021/09/25 02:53:38;;;;;;;2.71;2.51;;;;;;;19.69;68.87;100549.09;;;;-55
2021/09/25 02:56:38;;;;;;;2.56;2.34;;;;;;;19.68;68.87;100554.63;;;;-55
2021/09/25 02:59:38;;;;;;;2.65;2.43;;;;;;;19.68;68.89;100547.39;;;;-56
2021/09/25 03:02:38;;;;;;;2.31;2.11;;;;;;;19.68;68.84;100543.98;;;;-55
2021/09/25 03:05:38;;;;;;;2.52;2.32;;;;;;;19.68;68.93;100541.53;;;;-55
2021/09/25 03:08:38;;;;;;;2.48;2.28;;;;;;;19.67;68.89;100532.60;;;;-55
2021/09/25 03:11:39;;;;;;;2.43;2.23;;;;;;;19.67;68.92;100535.02;;;;-54
2021/09/25 03:14:38;;;;;;;2.60;2.40;;;;;;;19.67;68.91;100538.92;;;;-55
2021/09/25 03:17:38;;;;;;;2.53;2.33;;;;;;;19.66;68.93;100542.41;;;;-55
2021/09/25 03:20:38;;;;;;;2.67;2.31;;;;;;;19.66;68.88;100538.92;;;;-55
2021/09/25 03:23:38;;;;;;;2.55;2.35;;;;;;;19.66;68.91;100538.11;;;;-55
2021/09/25 03:26:38;;;;;;;2.37;2.17;;;;;;;19.66;68.95;100539.09;;;;-55
2021/09/25 03:29:38;;;;;;;2.57;2.37;;;;;;;19.65;68.92;100540.47;;;;-55
2021/09/25 03:32:39;;;;;;;2.48;2.28;;;;;;;19.65;68.89;100532.83;;;;-55
2021/09/25 03:35:39;;;;;;;2.98;2.39;;;;;;;19.65;68.92;100529.15;;;;-54
2021/09/25 03:38:38;;;;;;;2.45;2.25;;;;;;;19.65;68.90;100527.03;;;;-55
2021/09/25 03:41:38;;;;;;;2.41;2.21;;;;;;;19.64;68.93;100535.98;;;;-55
2021/09/25 03:44:38;;;;;;;2.30;2.10;;;;;;;19.63;68.93;100531.44;;;;-54
2021/09/25 03:47:38;;;;;;;2.39;2.19;;;;;;;19.63;68.88;100529.24;;;;-55
2021/09/25 03:50:38;;;;;;;2.60;2.40;;;;;;;19.63;68.91;100526.08;;;;-55
2021/09/25 03:53:38;;;;;;;2.48;2.28;;;;;;;19.63;68.95;100530.27;;;;-55
2021/09/25 03:56:38;;;;;;;2.65;2.45;;;;;;;19.62;68.91;100527.75;;;;-55
2021/09/25 03:59:38;;;;;;;2.39;2.19;;;;;;;19.62;68.92;100527.84;;;;-55
2021/09/25 04:02:38;;;;;;;2.49;2.29;;;;;;;19.63;68.89;100528.81;;;;-55
2021/09/25 04:05:38;;;;;;;2.41;2.21;;;;;;;19.62;68.91;100529.46;;;;-55
2021/09/25 04:08:38;;;;;;;2.60;2.40;;;;;;;19.61;68.89;100532.16;;;;-55
2021/09/25 04:11:38;;;;;;;2.68;2.19;;;;;;;19.61;68.93;100530.45;;;;-55
2021/09/25 04:14:38;;;;;;;2.38;2.18;;;;;;;19.61;68.90;100533.78;;;;-54
2021/09/25 04:17:39;;;;;;;2.54;2.34;;;;;;;19.62;68.88;100537.75;;;;-55
2021/09/25 04:20:38;;;;;;;2.50;2.30;;;;;;;19.60;68.91;100536.60;;;;-56
2021/09/25 04:23:38;;;;;;;2.41;2.21;;;;;;;19.61;68.90;100536.68;;;;-54
2021/09/25 04:26:38;;;;;;;2.49;2.29;;;;;;;19.61;68.88;100546.27;;;;-61
2021/09/25 04:29:38;;;;;;;2.47;2.27;;;;;;;19.60;68.95;100543.27;;;;-59
2021/09/25 04:32:38;;;;;;;2.44;2.24;;;;;;;19.61;68.87;100542.48;;;;-59
2021/09/25 04:35:38;;;;;;;2.30;2.10;;;;;;;19.61;68.88;100539.04;;;;-59
2021/09/25 04:38:38;;;;;;;2.62;2.42;;;;;;;19.62;68.83;100532.72;;;;-61
2021/09/25 04:41:38;;;;;;;2.30;2.10;;;;;;;19.60;68.89;100526.93;;;;-59
2021/09/25 04:44:38;;;;;;;2.48;2.28;;;;;;;19.59;68.87;100526.42;;;;-59
2021/09/25 04:47:38;;;;;;;2.45;2.25;;;;;;;19.59;68.88;100526.13;;;;-60
2021/09/25 04:50:39;;;;;;;2.40;2.20;;;;;;;19.58;68.87;100533.01;;;;-61
2021/09/25 04:53:38;;;;;;;2.40;2.20;;;;;;;19.58;68.91;100527.89;;;;-60
2021/09/25 04:56:38;;;;;;;2.58;2.29;;;;;;;19.58;68.87;100529.11;;;;-59
2021/09/25 04:59:38;;;;;;;2.45;2.25;;;;;;;19.57;68.94;100535.84;;;;-61
2021/09/25 05:02:38;;;;;;;2.40;2.20;;;;;;;19.58;68.89;100536.91;;;;-60
2021/09/25 05:05:38;;;;;;;2.47;2.27;;;;;;;19.58;68.89;100547.64;;;;-59
2021/09/25 05:08:38;;;;;;;2.37;2.17;;;;;;;19.58;68.84;100546.34;;;;-59
2021/09/25 05:11:38;;;;;;;2.59;2.39;;;;;;;19.57;68.86;100550.17;;;;-58
2021/09/25 05:14:40;;;;;;;2.51;2.31;;;;;;;19.57;68.91;100552.85;;;;-59
2021/09/25 05:17:38;;;;;;;2.35;2.15;;;;;;;19.57;68.92;100558.92;;;;-58
2021/09/25 05:20:38;;;;;;;2.47;2.27;;;;;;;19.57;68.87;100558.14;;;;-59
2021/09/25 05:23:38;;;;;;;2.48;2.28;;;;;;;19.57;68.89;100560.98;;;;-59
2021/09/25 05:26:40;;;;;;;2.40;2.20;;;;;;;19.57;68.86;100561.88;;;;-60
2021/09/25 05:29:38;;;;;;;2.21;2.01;;;;;;;19.57;68.87;100570.41;;;;-60
2021/09/25 05:32:38;;;;;;;2.56;2.36;;;;;;;19.57;68.91;100564.45;;;;-55
2021/09/25 05:35:38;;;;;;;2.51;2.31;;;;;;;19.56;68.88;100564.05;;;;-55
2021/09/25 05:38:38;;;;;;;2.53;2.33;;;;;;;19.57;68.86;100566.89;;;;-54
2021/09/25 05:41:38;;;;;;;2.58;2.38;;;;;;;19.56;68.91;100567.06;;;;-54
2021/09/25 05:44:38;;;;;;;2.29;2.09;;;;;;;19.55;68.89;100568.20;;;;-54
2021/09/25 05:47:38;;;;;;;2.35;2.15;;;;;;;19.56;68.90;100566.57;;;;-54
2021/09/25 05:50:38;;;;;;;2.50;2.30;;;;;;;19.55;68.94;100569.75;;;;-55
2021/09/25 05:53:38;;;;;;;2.39;2.19;;;;;;;19.55;68.87;100571.86;;;;-54
2021/09/25 05:56:38;;;;;;;2.37;2.17;;;;;;;19.55;68.92;100577.71;;;;-55
2021/09/25 05:59:38;;;;;;;2.37;2.17;;;;;;;19.55;68.94;100571.05;;;;-55
2021/09/25 06:02:38;;;;;;;2.30;2.10;;;;;;;19.56;68.87;100567.62;;;;-55
2021/09/25 06:05:38;;;;;;;2.21;2.03;;;;;;;19.55;68.91;100570.06;;;;-55
2021/09/25 06:08:38;;;;;;;2.17;2.02;;;;;;;19.56;68.88;100573.08;;;;-55
2021/09/25 06:11:38;;;;;;;2.35;2.15;;;;;;;19.56;68.87;100571.77;;;;-55
2021/09/25 06:14:38;;;;;;;2.39;2.19;;;;;;;19.56;68.84;100570.15;;;;-55
2021/09/25 06:17:38;;;;;;;2.44;2.24;;;;;;;19.55;68.87;100569.17;;;;-54
2021/09/25 06:20:38;;;;;;;2.53;2.33;;;;;;;19.56;68.83;100564.62;;;;-55
2021/09/25 06:23:38;;;;;;;2.40;2.18;;;;;;;19.55;68.81;100561.12;;;;-55
2021/09/25 06:26:38;;;;;;;2.51;2.31;;;;;;;19.56;68.83;100559.58;;;;-54
2021/09/25 06:29:39;;;;;;;2.49;2.29;;;;;;;19.54;68.86;100558.34;;;;-55
2021/09/25 06:32:38;;;;;;;2.40;2.20;;;;;;;19.55;68.83;100554.47;;;;-55
2021/09/25 06:35:38;;;;;;;2.37;2.17;;;;;;;19.54;68.82;100554.59;;;;-54
2021/09/25 06:38:38;;;;;;;2.46;2.26;;;;;;;19.55;68.81;100557.72;;;;-58
2021/09/25 06:41:38;;;;;;;2.53;2.30;;;;;;;19.55;68.83;100550.89;;;;-59
2021/09/25 06:44:38;;;;;;;2.43;2.23;;;;;;;19.54;68.82;100553.79;;;;-58
2021/09/25 06:47:38;;;;;;;2.37;2.19;;;;;;;19.54;68.81;100555.91;;;;-59
2021/09/25 06:50:38;;;;;;;2.33;2.13;;;;;;;19.54;68.86;100560.78;;;;-59
2021/09/25 06:53:38;;;;;;;2.44;2.24;;;;;;;19.53;68.84;100558.59;;;;-59
2021/09/25 06:56:38;;;;;;;8.29;6.27;;;;;;;19.48;65.74;100570.08;;;;-59
2021/09/25 06:59:38;;;;;;;9.01;7.89;;;;;;;19.34;64.67;100566.57;;;;-51
2021/09/25 07:02:38;;;;;;;12.08;8.20;;;;;;;19.26;64.61;100573.81;;;;-51
2021/09/25 07:05:38;;;;;;;10.95;8.94;;;;;;;19.18;64.61;100572.92;;;;-56
2021/09/25 07:08:38;;;;;;;10.78;8.72;;;;;;;19.06;64.84;100572.31;;;;-58
2021/09/25 07:11:38;;;;;;;10.98;8.40;;;;;;;19.02;65.07;100578.61;;;;-58
2021/09/25 07:14:38;;;;;;;11.38;8.50;;;;;;;18.91;65.19;100577.37;;;;-58
2021/09/25 07:17:38;;;;;;;9.61;7.67;;;;;;;18.89;65.44;100571.50;;;;-58
2021/09/25 07:20:38;;;;;;;11.92;7.79;;;;;;;18.79;66.03;100574.80;;;;-51
2021/09/25 07:23:39;;;;;;;9.57;7.35;;;;;;;18.79;66.72;100569.03;;;;-51
2021/09/25 07:26:39;;;;;;;7.77;6.82;;;;;;;18.84;66.95;100571.27;;;;-52
2021/09/25 07:29:38;;;;;;;8.47;6.53;;;;;;;18.91;67.01;100578.18;;;;-52
2021/09/25 07:32:38;;;;;;;8.44;6.07;;;;;;;18.95;67.13;100588.05;;;;-58
2021/09/25 07:35:38;;;;;;;7.26;5.83;;;;;;;18.99;67.27;100589.14;;;;-59
2021/09/25 07:38:38;;;;;;;7.05;5.67;;;;;;;19.03;67.31;100595.41;;;;-59
2021/09/25 07:41:39;;;;;;;6.60;5.79;;;;;;;19.05;67.25;100596.93;;;;-59
2021/09/25 07:44:38;;;;;;;7.79;5.70;;;;;;;19.08;67.29;100599.95;;;;-51
2021/09/25 07:47:38;;;;;;;5.68;5.11;;;;;;;19.09;67.42;100600.59;;;;-62
2021/09/25 07:50:38;;;;;;;6.45;4.57;;;;;;;19.10;67.46;100603.63;;;;-59
2021/09/25 07:53:38;;;;;;;5.47;4.97;;;;;;;19.12;67.50;100603.65;;;;-51
2021/09/25 07:56:38;;;;;;;5.59;5.02;;;;;;;19.13;67.56;100604.21;;;;-59
2021/09/25 07:59:38;;;;;;;5.34;4.65;;;;;;;19.15;67.55;100605.53;;;;-59
2021/09/25 08:02:40;;;;;;;5.43;4.51;;;;;;;19.16;67.59;100600.93;;;;-59
2021/09/25 08:05:38;;;;;;;5.10;4.60;;;;;;;19.17;67.72;100598.89;;;;-51
2021/09/25 08:08:38;;;;;;;5.19;4.37;;;;;;;19.17;67.71;100606.20;;;;-51
2021/09/25 08:11:38;;;;;;;5.47;4.37;;;;;;;19.21;67.71;100606.24;;;;-51
2021/09/25 08:14:38;;;;;;;6.40;4.25;;;;;;;19.23;67.83;100599.93;;;;-62
2021/09/25 08:17:38;;;;;;;5.52;4.18;;;;;;;19.25;67.94;100602.38;;;;-59
2021/09/25 08:20:38;;;;;;;6.20;4.20;;;;;;;19.27;68.06;100595.98;;;;-60
2021/09/25 08:23:38;;;;;;;5.69;4.09;;;;;;;19.29;68.07;100587.88;;;;-60
2021/09/25 08:26:38;;;;;;;5.30;3.99;;;;;;;19.32;68.08;100585.13;;;;-61
2021/09/25 08:29:38;;;;;;;5.69;3.95;;;;;;;19.34;68.14;100586.78;;;;-61
2021/09/25 08:32:38;;;;;;;4.51;4.10;;;;;;;19.35;68.25;100591.19;;;;-59
2021/09/25 08:35:38;;;;;;;5.08;3.72;;;;;;;19.37;68.29;100599.74;;;;-59
2021/09/25 08:38:38;;;;;;;4.39;3.99;;;;;;;19.36;68.29;100599.31;;;;-59
2021/09/25 08:41:38;;;;;;;4.14;3.77;;;;;;;19.36;68.25;100600.94;;;;-60
2021/09/25 08:44:38;;;;;;;5.61;3.87;;;;;;;19.36;68.31;100600.07;;;;-61
2021/09/25 08:47:38;;;;;;;4.32;3.57;;;;;;;19.36;68.30;100598.09;;;;-63
2021/09/25 08:50:38;;;;;;;5.28;3.91;;;;;;;19.36;68.27;100588.77;;;;-59
2021/09/25 08:53:38;;;;;;;4.27;3.58;;;;;;;19.36;68.27;100579.64;;;;-58
2021/09/25 08:56:38;;;;;;;5.97;3.91;;;;;;;19.36;68.27;100582.67;;;;-59
2021/09/25 08:59:38;;;;;;;4.23;3.84;;;;;;;19.36;68.28;100587.95;;;;-60
2021/09/25 09:02:38;;;;;;;4.72;3.97;;;;;;;19.37;68.29;100589.17;;;;-62
2021/09/25 09:05:38;;;;;;;4.77;3.65;;;;;;;19.37;68.26;100590.39;;;;-58
2021/09/25 09:08:38;;;;;;;3.90;3.51;;;;;;;19.37;68.26;100589.25;;;;-63
2021/09/25 09:11:38;;;;;;;3.80;3.50;;;;;;;19.37;68.26;100587.62;;;;-62
2021/09/25 09:14:38;;;;;;;4.02;3.57;;;;;;;19.37;68.31;100590.55;;;;-61
2021/09/25 09:17:38;;;;;;;3.87;3.55;;;;;;;19.38;68.29;100592.17;;;;-59
2021/09/25 09:20:39;;;;;;;3.89;3.59;;;;;;;19.39;68.27;100589.84;;;;-59
2021/09/25 09:23:38;;;;;;;4.05;3.67;;;;;;;19.39;68.32;100588.88;;;;-59
2021/09/25 09:26:38;;;;;;;4.61;3.33;;;;;;;19.40;68.25;100586.10;;;;-59
2021/09/25 09:29:38;;;;;;;3.91;3.47;;;;;;;19.39;68.26;100578.47;;;;-59
2021/09/25 09:32:38;;;;;;;3.93;3.28;;;;;;;19.40;68.25;100572.94;;;;-57
2021/09/25 09:35:38;;;;;;;3.72;3.38;;;;;;;19.40;68.22;100569.71;;;;-58
2021/09/25 09:38:38;;;;;;;3.76;3.46;;;;;;;19.39;68.23;100570.09;;;;-58
2021/09/25 09:41:38;;;;;;;3.75;3.39;;;;;;;19.41;68.26;100578.81;;;;-59
2021/09/25 09:44:38;;;;;;;4.65;3.48;;;;;;;19.41;68.26;100572.23;;;;-59
2021/09/25 09:47:38;;;;;;;3.62;3.32;;;;;;;19.40;68.26;100569.88;;;;-59
2021/09/25 09:50:38;;;;;;;3.89;3.49;;;;;;;19.41;68.26;100561.18;;;;-59
2021/09/25 09:53:38;;;;;;;3.74;3.19;;;;;;;19.41;68.27;100561.74;;;;-59
2021/09/25 09:56:38;;;;;;;3.52;3.22;;;;;;;19.42;68.31;100560.69;;;;-59
2021/09/25 09:59:38;;;;;;;3.65;3.32;;;;;;;19.42;68.26;100560.79;;;;-63
2021/09/25 10:02:38;;;;;;;3.69;3.19;;;;;;;19.46;68.24;100558.28;;;;-65
2021/09/25 10:05:40;;;;;;;3.69;3.13;;;;;;;19.47;68.28;100550.09;;;;-63
2021/09/25 10:08:38;;;;;;;5.08;3.41;;;;;;;19.50;68.55;100546.93;;;;-60
2021/09/25 10:11:38;;;;;;;6.22;3.49;;;;;;;19.52;68.52;100553.20;;;;-60
2021/09/25 10:14:38;;;;;;;5.63;3.29;;;;;;;19.52;68.63;100546.22;;;;-61
2021/09/25 10:17:38;;;;;;;6.41;3.54;;;;;;;19.52;68.47;100548.33;;;;-57
2021/09/25 10:20:38;;;;;;;4.83;3.53;;;;;;;19.51;68.44;100549.13;;;;-57
2021/09/25 10:23:38;;;;;;;7.19;3.33;;;;;;;19.51;68.46;100546.95;;;;-56
2021/09/25 10:26:43;;;;;;;4.27;3.31;;;;;;;19.50;68.48;100545.95;;;;-60
2021/09/25 10:29:38;;;;;;;5.08;3.57;;;;;;;19.51;68.43;100545.55;;;;-60
2021/09/25 10:32:38;;;;;;;5.01;3.29;;;;;;;19.51;68.40;100538.66;;;;-61
2021/09/25 10:35:38;;;;;;;4.69;3.26;;;;;;;19.51;68.35;100532.08;;;;-58
2021/09/25 10:38:39;;;;;;;4.54;3.39;;;;;;;19.51;68.37;100526.30;;;;-57
2021/09/25 10:41:38;;;;;;;4.57;3.19;;;;;;;19.51;68.36;100529.56;;;;-57
2021/09/25 10:44:38;;;;;;;5.17;3.21;;;;;;;19.51;68.38;100529.56;;;;-57
2021/09/25 10:47:38;;;;;;;3.89;3.09;;;;;;;19.51;68.32;100521.44;;;;-56
2021/09/25 10:50:38;;;;;;;4.26;3.02;;;;;;;19.51;68.36;100524.77;;;;-57
2021/09/25 10:53:39;;;;;;;4.45;3.41;;;;;;;19.50;68.32;100522.38;;;;-61
2021/09/25 10:56:38;;;;;;;3.73;3.08;;;;;;;19.50;68.32;100515.55;;;;-55
2021/09/25 10:59:38;;;;;;;3.40;2.98;;;;;;;19.51;68.35;100514.11;;;;-56
2021/09/25 11:02:38;;;;;;;3.33;3.03;;;;;;;19.51;68.32;100508.10;;;;-56
2021/09/25 11:05:38;;;;;;;3.49;3.19;;;;;;;19.51;68.30;100504.41;;;;-57
2021/09/25 11:08:38;;;;;;;3.69;3.15;;;;;;;19.51;68.31;100507.37;;;;-58
2021/09/25 11:11:38;;;;;;;3.60;3.23;;;;;;;19.52;68.32;100507.20;;;;-57
2021/09/25 11:14:38;;;;;;;3.23;2.87;;;;;;;19.51;68.30;100505.34;;;;-61
2021/09/25 11:17:39;;;;;;;4.33;3.07;;;;;;;19.51;68.31;100499.41;;;;-62
2021/09/25 11:20:38;;;;;;;4.10;3.20;;;;;;;19.52;68.28;100500.45;;;;-62
2021/09/25 11:23:38;;;;;;;3.42;3.09;;;;;;;19.51;68.32;100499.16;;;;-61
2021/09/25 11:26:38;;;;;;;3.30;3.00;;;;;;;19.52;68.29;100493.79;;;;-60
2021/09/25 11:29:38;;;;;;;3.07;2.77;;;;;;;19.52;68.30;100494.28;;;;-60
2021/09/25 11:32:38;;;;;;;4.51;3.06;;;;;;;19.51;68.30;100496.06;;;;-56
2021/09/25 11:35:38;;;;;;;3.08;2.78;;;;;;;19.53;68.27;100494.30;;;;-57
2021/09/25 11:38:38;;;;;;;3.88;2.93;;;;;;;19.52;68.31;100490.53;;;;-57
2021/09/25 11:41:38;;;;;;;3.27;2.92;;;;;;;19.53;68.27;100488.93;;;;-56
2021/09/25 11:44:38;;;;;;;3.12;2.82;;;;;;;19.53;68.26;100481.86;;;;-56
2021/09/25 11:47:38;;;;;;;3.13;2.83;;;;;;;19.52;68.33;100476.88;;;;-56
2021/09/25 11:50:38;;;;;;;3.09;2.89;;;;;;;19.53;68.25;100472.84;;;;-57
2021/09/25 11:53:38;;;;;;;3.48;2.97;;;;;;;19.52;68.29;100470.38;;;;-60
2021/09/25 11:56:38;;;;;;;3.31;2.87;;;;;;;19.53;68.26;100472.73;;;;-61
2021/09/25 11:59:38;;;;;;;3.25;2.85;;;;;;;19.53;68.30;100467.15;;;;-61
2021/09/25 12:02:38;;;;;;;3.02;2.82;;;;;;;19.54;68.28;100467.87;;;;-61
2021/09/25 12:05:38;;;;;;;3.03;2.79;;;;;;;19.54;68.25;100464.63;;;;-61
2021/09/25 12:08:38;;;;;;;3.35;3.05;;;;;;;19.52;68.30;100458.02;;;;-61
2021/09/25 12:11:38;;;;;;;3.13;2.83;;;;;;;19.53;68.28;100455.77;;;;-58
2021/09/25 12:14:38;;;;;;;3.43;2.88;;;;;;;19.53;68.26;100448.62;;;;-57
2021/09/25 12:17:38;;;;;;;4.29;3.01;;;;;;;19.54;68.29;100442.59;;;;-57
2021/09/25 12:20:38;;;;;;;3.16;2.89;;;;;;;19.54;68.26;100433.16;;;;-57
2021/09/25 12:23:39;;;;;;;5.75;2.98;;;;;;;19.56;68.29;100427.89;;;;-58
2021/09/25 12:26:42;;;;;;;3.44;2.95;;;;;;;19.57;68.33;100423.66;;;;-60
2021/09/25 12:29:38;;;;;;;3.22;2.93;;;;;;;19.57;68.33;100412.06;;;;-61
2021/09/25 12:32:38;;;;;;;3.38;2.76;;;;;;;19.59;68.34;100405.23;;;;-62
2021/09/25 12:35:38;;;;;;;4.99;3.03;;;;;;;19.61;68.35;100401.35;;;;-60
2021/09/25 12:38:38;;;;;;;3.59;3.25;;;;;;;19.61;68.30;100397.29;;;;-60
2021/09/25 12:41:39;;;;;;;3.39;3.05;;;;;;;19.63;68.39;100400.20;;;;-59
2021/09/25 12:44:39;;;;;;;3.27;2.97;;;;;;;19.64;68.45;100404.52;;;;-59
2021/09/25 12:47:38;;;;;;;4.43;3.13;;;;;;;19.67;68.56;100400.78;;;;-57
2021/09/25 12:50:38;;;;;;;5.77;3.15;;;;;;;19.68;68.55;100400.07;;;;-58
2021/09/25 12:53:38;;;;;;;6.19;3.04;;;;;;;19.69;68.53;100400.50;;;;-59
2021/09/25 12:56:38;;;;;;;4.33;3.16;;;;;;;19.70;68.53;100398.97;;;;-59
2021/09/25 12:59:38;;;;;;;4.37;2.90;;;;;;;19.71;68.45;100402.55;;;;-57
2021/09/25 13:02:38;;;;;;;3.18;2.93;;;;;;;19.73;68.52;100402.15;;;;-57
2021/09/25 13:05:38;;;;;;;3.33;3.03;;;;;;;19.74;68.59;100397.69;;;;-62
2021/09/25 13:08:38;;;;;;;4.79;3.03;;;;;;;19.74;68.47;100393.06;;;;-61
2021/09/25 13:11:38;;;;;;;4.07;3.23;;;;;;;19.74;68.51;100388.09;;;;-62
2021/09/25 13:14:38;;;;;;;4.02;3.09;;;;;;;19.74;68.34;100382.56;;;;-63
2021/09/25 13:17:38;;;;;;;4.69;3.17;;;;;;;19.74;68.23;100385.41;;;;-55
2021/09/25 13:20:38;;;;;;;4.43;3.14;;;;;;;19.74;68.25;100387.61;;;;-55
2021/09/25 13:23:38;;;;;;;3.44;3.02;;;;;;;19.74;68.12;100386.23;;;;-54
2021/09/25 13:26:38;;;;;;;4.73;2.98;;;;;;;19.74;68.15;100383.80;;;;-56
2021/09/25 13:29:38;;;;;;;4.17;2.99;;;;;;;19.73;68.06;100377.18;;;;-56
2021/09/25 13:32:38;;;;;;;4.77;3.00;;;;;;;19.74;68.30;100378.83;;;;-53
2021/09/25 13:35:38;;;;;;;3.77;3.08;;;;;;;19.74;68.23;100381.52;;;;-53
2021/09/25 13:38:38;;;;;;;6.16;3.13;;;;;;;19.76;68.26;100374.05;;;;-52
2021/09/25 13:41:38;;;;;;;6.97;3.35;;;;;;;19.77;68.27;100366.79;;;;-53
2021/09/25 13:44:38;;;;;;;5.68;3.13;;;;;;;19.77;68.38;100361.27;;;;-53
2021/09/25 13:47:38;;;;;;;4.17;2.89;;;;;;;19.77;68.17;100360.13;;;;-53
2021/09/25 13:50:38;;;;;;;5.23;3.05;;;;;;;19.75;68.26;100353.86;;;;-57
2021/09/25 13:53:38;;;;;;;4.73;3.01;;;;;;;19.76;68.25;100356.97;;;;-59
2021/09/25 13:56:38;;;;;;;4.62;2.80;;;;;;;19.76;68.11;100362.98;;;;-59
2021/09/25 13:59:38;;;;;;;3.78;2.89;;;;;;;19.75;68.25;100360.84;;;;-59
2021/09/25 14:02:38;;;;;;;3.90;2.99;;;;;;;19.75;68.20;100358.73;;;;-59
2021/09/25 14:05:38;;;;;;;4.25;2.94;;;;;;;19.74;68.21;100349.23;;;;-59
2021/09/25 14:08:38;;;;;;;3.88;3.07;;;;;;;19.75;68.20;100350.85;;;;-58
2021/09/25 14:11:38;;;;;;;3.92;2.84;;;;;;;19.74;68.20;100341.42;;;;-59
2021/09/25 14:14:38;;;;;;;5.03;2.98;;;;;;;19.74;68.19;100340.45;;;;-62
2021/09/25 14:17:38;;;;;;;3.69;2.87;;;;;;;19.74;68.22;100336.14;;;;-62
2021/09/25 14:20:41;;;;;;;3.38;2.93;;;;;;;19.74;68.20;100337.20;;;;-62
2021/09/25 14:23:38;;;;;;;3.54;2.86;;;;;;;19.74;68.23;100337.69;;;;-61
2021/09/25 14:26:38;;;;;;;3.55;2.89;;;;;;;19.73;68.25;100335.23;;;;-61
2021/09/25 14:29:38;;;;;;;6.06;2.95;;;;;;;19.73;68.21;100342.55;;;;-62
2021/09/25 14:32:38;;;;;;;5.28;3.07;;;;;;;19.73;68.24;100342.47;;;;-61
2021/09/25 14:35:38;;;;;;;3.89;2.77;;;;;;;19.74;68.23;100337.29;;;;-62
2021/09/25 14:38:38;;;;;;;3.56;2.99;;;;;;;19.73;68.23;100334.91;;;;-62
2021/09/25 14:41:38;;;;;;;2.89;2.63;;;;;;;19.73;68.22;100334.50;;;;-61
2021/09/25 14:44:39;;;;;;;3.75;2.74;;;;;;;19.74;68.21;100331.51;;;;-62
2021/09/25 14:47:38;;;;;;;3.08;2.73;;;;;;;19.73;68.19;100336.37;;;;-61
2021/09/25 14:50:38;;;;;;;3.70;3.17;;;;;;;19.73;68.25;100343.20;;;;-63
2021/09/25 14:53:38;;;;;;;3.80;2.65;;;;;;;19.72;68.26;100346.30;;;;-62
2021/09/25 14:56:38;;;;;;;3.46;2.65;;;;;;;19.73;68.23;100341.08;;;;-61
2021/09/25 14:59:38;;;;;;;4.93;3.00;;;;;;;19.73;68.28;100327.67;;;;-60
2021/09/25 15:02:38;;;;;;;5.31;2.86;;;;;;;19.75;68.35;100329.80;;;;-60
2021/09/25 15:05:38;;;;;;;5.25;2.80;;;;;;;19.76;68.42;100328.83;;;;-58
2021/09/25 15:08:38;;;;;;;3.22;2.89;;;;;;;19.79;68.42;100334.84;;;;-61
2021/09/25 15:11:39;;;;;;;4.52;3.00;;;;;;;19.78;68.46;100331.52;;;;-60
2021/09/25 15:14:38;;;;;;;4.51;2.90;;;;;;;19.79;68.46;100329.97;;;;-60
2021/09/25 15:17:39;;;;;;;5.59;2.91;;;;;;;19.78;68.34;100329.25;;;;-61
2021/09/25 15:20:38;;;;;;;4.29;2.85;;;;;;;19.78;68.40;100331.03;;;;-53
2021/09/25 15:23:38;;;;;;;5.21;2.76;;;;;;;19.77;68.35;100329.55;;;;-53
2021/09/25 15:26:38;;;;;;;3.41;2.89;;;;;;;19.78;68.34;100326.81;;;;-53
2021/09/25 15:29:38;;;;;;;4.81;3.04;;;;;;;19.78;68.30;100325.34;;;;-52
2021/09/25 15:32:38;;;;;;;4.04;2.73;;;;;;;19.77;68.33;100323.62;;;;-53
2021/09/25 15:35:38;;;;;;;3.34;2.95;;;;;;;19.77;68.34;100322.48;;;;-53
2021/09/25 15:38:38;;;;;;;3.01;2.63;;;;;;;19.77;68.33;100321.51;;;;-53
2021/09/25 15:41:38;;;;;;;5.16;2.86;;;;;;;19.77;68.32;100327.12;;;;-53
2021/09/25 15:44:38;;;;;;;3.86;2.85;;;;;;;19.76;68.35;100322.98;;;;-53
2021/09/25 15:47:38;;;;;;;5.30;2.67;;;;;;;19.78;68.33;100329.17;;;;-53
2021/09/25 15:50:38;;;;;;;4.17;2.73;;;;;;;19.77;68.32;100322.32;;;;-53
2021/09/25 15:53:38;;;;;;;3.59;2.73;;;;;;;19.77;68.30;100317.19;;;;-53
2021/09/25 15:56:38;;;;;;;4.97;2.81;;;;;;;19.76;68.27;100309.98;;;;-54
2021/09/25 15:59:38;;;;;;;3.31;2.65;;;;;;;19.77;68.29;100310.12;;;;-54
2021/09/25 16:02:38;;;;;;;7.63;2.89;;;;;;;19.77;68.35;100306.38;;;;-53
2021/09/25 16:05:38;;;;;;;3.29;2.70;;;;;;;19.79;68.44;100303.95;;;;-54
2021/09/25 16:08:38;;;;;;;3.72;2.71;;;;;;;19.79;68.52;100298.98;;;;-51
2021/09/25 16:11:38;;;;;;;3.93;2.75;;;;;;;19.80;68.65;100296.80;;;;-54
2021/09/25 16:14:38;;;;;;;5.51;2.77;;;;;;;19.82;68.63;100297.55;;;;-57
2021/09/25 16:17:38;;;;;;;3.82;2.80;;;;;;;19.84;68.68;100301.11;;;;-55
2021/09/25 16:20:39;;;;;;;2.99;2.70;;;;;;;19.85;68.71;100301.36;;;;-55
2021/09/25 16:23:38;;;;;;;3.18;2.67;;;;;;;19.87;68.72;100300.80;;;;-52
2021/09/25 16:26:38;;;;;;;4.34;2.70;;;;;;;19.88;68.71;100297.21;;;;-60
2021/09/25 16:29:38;;;;;;;3.65;2.68;;;;;;;19.89;68.72;100297.71;;;;-54
2021/09/25 16:32:38;;;;;;;4.24;2.69;;;;;;;19.91;68.75;100297.64;;;;-55
2021/09/25 16:35:38;;;;;;;3.97;2.78;;;;;;;19.91;68.75;100293.00;;;;-60
2021/09/25 16:38:38;;;;;;;5.47;2.77;;;;;;;19.93;68.80;100297.65;;;;-61
2021/09/25 16:41:38;;;;;;;3.61;2.49;;;;;;;19.92;68.91;100297.08;;;;-54